Elkins, WV

2:03 PM EST on November 27, 2014 (GMT -0500)
Elkins-Randolph County | Change Station
CLOSE
Current Station
Airport
Location: Elkins,
Elevation: 1978 ft
Nearby Weather Stations

Elev 1978 ft 38.89 °N, 79.85 °W | Updated 1 hour ago

Overcast
Overcast
32 °F
Feels Like 24 °F
N
9
Wind Variable Wind from WNW

Today
High -- | Low -- °F
--% Chance of Precip.
Yesterday
High -- | Low -- °F
Precip. -- in
7:15 AM 4:58 PM
Waxing Crescent, 32% visible
Pressure 30.12 in
Visibility 4.0 miles
Clouds Scattered Clouds 2200 ft
Mostly Cloudy 2900 ft
Overcast 3600 ft
Windchill 24 °F
Dew Point 27 °F
Humidity 82%
Rainfall 0.00 in
Snow Depth Not available.
UV 1 out of 12
Pollen .10 out of 12
Air Quality Not available.
Flu Activity Not available.
METAR KEKN 271751Z AUTO 30008KT 4SM -SN SCT022 BKN029 OVC036 00/M03 A3005 RMK AO2 UPB01E05SNB29 SLP197 P0000 60000 I6001 T00001028 10006 20000 50005 TSNO

More Conditions Fewer Conditions

Pressure 30.12 in
Visibility 4.0 miles
Clouds Scattered Clouds 2200 ft
Mostly Cloudy 2900 ft
Overcast 3600 ft
Windchill 24 °F
Dew Point 27 °F
Humidity 82%
Rainfall 0.00 in
Snow Depth Not available.
UV 1 out of 12
Pollen .10 out of 12
Air Quality Not available.
Flu Activity Not available.
METAR KEKN 271751Z AUTO 30008KT 4SM -SN SCT022 BKN029 OVC036 00/M03 A3005 RMK AO2 UPB01E05SNB29 SLP197 P0000 60000 I6001 T00001028 10006 20000 50005 TSNO

More Conditions Fewer Conditions

10-Day Weather Forecast

Almanac

Astronomy

Nov. 27, 2014 Rise Set
Actual Time
Civil Twilight
Nautical Twilight
Astronomical Twilight
Moon
Length of Visible Light
Length of Day
Tomorrow will be .
, % of the Moon is Illuminated

Today's Extremes

State Highs State Lows

Community

WunderPhotos

Upload Photos

1,774,088 photos uploaded!

WunderBlogs® & News

Nearby

Air Quality

  Air Quality AQ Index Pollutant
Not available.

Snow Depth

Station Depth Elevation

Earthquake Activity

City Distance Mag. Time & Date
Minimum magnitude displayed is 2.5.

Coastal Water Temperatures

Place Temperature

Nearby Weather Stations